Time;durP1;ratioP1;P1;durP2;ratioP2;P2;SDS_P1;SDS_P2;PMS_P1;PMS_P2;Temp;Humidity;BMP_temperature;BMP_pressure;BME280_temperature;BME280_humidity;BME280_pressure;Samples;Min_cycle;Max_cycle;Signal;HPM_P1;HPM_P2
2023/04/28 00:00:37;;;;;;;8.80;7.20;;;10.30;99.90;;;;;;5010434;28;20207;-76
2023/04/28 00:03:04;;;;;;;8.63;7.13;;;10.20;99.90;;;;;;5012634;28;20520;-78
2023/04/28 00:05:30;;;;;;;12.00;6.73;;;10.20;99.90;;;;;;5012967;28;20401;-77
2023/04/28 00:07:57;;;;;;;10.73;7.00;;;10.20;99.90;;;;;;5011966;28;20203;-76
2023/04/28 00:10:24;;;;;;;12.97;7.03;;;10.20;99.90;;;;;;5011520;28;20278;-77
2023/04/28 00:12:52;;;;;;;8.23;6.53;;;10.20;99.90;;;;;;5013229;28;20210;-77
2023/04/28 00:15:19;;;;;;;8.63;6.30;;;10.20;99.90;;;;;;4993409;28;20223;-77
2023/04/28 00:17:46;;;;;;;10.60;6.17;;;10.20;99.90;;;;;;4992950;28;20200;-77
2023/04/28 00:20:13;;;;;;;9.20;7.13;;;10.20;99.90;;;;;;4992297;28;20510;-76
2023/04/28 00:22:40;;;;;;;9.23;6.97;;;10.10;99.90;;;;;;4992393;28;20212;-78
2023/04/28 00:25:08;;;;;;;8.13;7.10;;;10.10;99.90;;;;;;4973746;28;20200;-76
2023/04/28 00:27:35;;;;;;;9.80;6.77;;;10.10;99.90;;;;;;4981457;28;20764;-77
2023/04/28 00:30:04;;;;;;;7.57;6.63;;;10.20;99.90;;;;;;4993179;28;20287;-77
2023/04/28 00:32:31;;;;;;;9.67;6.87;;;10.10;99.90;;;;;;4992127;28;20294;-76
2023/04/28 00:34:58;;;;;;;8.23;7.23;;;10.10;99.90;;;;;;5009049;28;20616;-76
2023/04/28 00:37:25;;;;;;;9.97;6.47;;;10.00;99.90;;;;;;5001278;28;20220;-77
2023/04/28 00:39:55;;;;;;;7.03;6.07;;;10.00;99.90;;;;;;4993034;28;20239;-78
2023/04/28 00:42:22;;;;;;;9.13;7.07;;;10.00;99.90;;;;;;4992602;28;20222;-77
2023/04/28 00:44:49;;;;;;;10.73;7.83;;;10.00;99.90;;;;;;4992520;28;20199;-79
2023/04/28 00:47:18;;;;;;;9.33;6.53;;;10.00;99.90;;;;;;4992862;28;20279;-78
2023/04/28 00:49:46;;;;;;;9.70;7.00;;;10.00;99.90;;;;;;4992454;28;20203;-76
2023/04/28 00:52:13;;;;;;;10.03;6.80;;;10.00;99.90;;;;;;4992755;28;20204;-78
2023/04/28 00:54:41;;;;;;;8.80;6.50;;;10.00;99.90;;;;;;4993104;28;20286;-76
2023/04/28 00:57:09;;;;;;;7.97;6.80;;;9.90;99.90;;;;;;4991124;28;20259;-76
2023/04/28 00:59:36;;;;;;;9.43;7.20;;;10.00;99.90;;;;;;4993026;28;20220;-77
2023/04/28 01:02:03;;;;;;;9.97;6.93;;;10.00;99.90;;;;;;5000163;28;20233;-78
2023/04/28 01:04:32;;;;;;;10.33;7.40;;;9.90;99.90;;;;;;5011782;28;20298;-76
2023/04/28 01:07:01;;;;;;;8.00;6.50;;;9.90;99.90;;;;;;5010499;28;20199;-77
2023/04/28 01:09:28;;;;;;;9.23;6.90;;;9.80;99.90;;;;;;5010750;28;20998;-78
2023/04/28 01:11:55;;;;;;;10.00;6.87;;;9.80;99.90;;;;;;5012365;28;20294;-77
2023/04/28 01:14:22;;;;;;;10.93;6.93;;;9.80;99.90;;;;;;5010236;28;20202;-77
2023/04/28 01:16:49;;;;;;;8.57;6.47;;;9.80;99.90;;;;;;4992121;28;20220;-77
2023/04/28 01:19:21;;;;;;;8.13;6.63;;;9.80;99.90;;;;;;4992574;28;20214;-77
2023/04/28 01:21:50;;;;;;;10.20;6.87;;;9.70;99.90;;;;;;5008416;28;20207;-77
2023/04/28 01:24:18;;;;;;;8.00;6.80;;;9.80;99.90;;;;;;5011252;28;20286;-77
2023/04/28 01:26:45;;;;;;;10.40;7.47;;;9.80;99.90;;;;;;5012082;28;20219;-77
2023/04/28 01:29:12;;;;;;;10.03;7.40;;;9.70;99.90;;;;;;5011218;28;20286;-77
2023/04/28 01:31:39;;;;;;;9.33;7.60;;;9.70;99.90;;;;;;5015474;28;20283;-77
2023/04/28 01:34:06;;;;;;;13.30;7.50;;;9.60;99.90;;;;;;5015519;28;20206;-77
2023/04/28 01:36:33;;;;;;;9.07;6.83;;;9.60;99.90;;;;;;5014626;28;20219;-77
2023/04/28 01:39:00;;;;;;;10.57;7.00;;;9.60;99.90;;;;;;5015020;28;20325;-78
2023/04/28 01:41:28;;;;;;;10.47;6.97;;;9.60;99.90;;;;;;5014483;28;20227;-77
2023/04/28 01:43:55;;;;;;;7.83;6.63;;;9.60;99.90;;;;;;4976783;28;20201;-76
2023/04/28 01:46:22;;;;;;;11.13;7.20;;;9.60;99.90;;;;;;4988430;28;20607;-76
2023/04/28 01:48:49;;;;;;;8.50;7.17;;;9.50;99.90;;;;;;4995798;28;20279;-77
2023/04/28 01:51:16;;;;;;;9.57;7.27;;;9.50;99.90;;;;;;4995784;28;20287;-78
2023/04/28 01:53:43;;;;;;;10.30;7.97;;;9.50;99.90;;;;;;4995622;28;20212;-76
2023/04/28 01:56:10;;;;;;;11.50;7.23;;;9.50;99.90;;;;;;5000863;28;20223;-75
2023/04/28 01:58:38;;;;;;;10.03;7.00;;;9.50;99.90;;;;;;5014749;28;20768;-76
2023/04/28 02:01:05;;;;;;;9.93;7.10;;;9.50;99.90;;;;;;5015605;28;20661;-76
2023/04/28 02:03:32;;;;;;;9.47;7.33;;;9.40;99.90;;;;;;5015833;28;20231;-76
2023/04/28 02:05:59;;;;;;;9.57;6.93;;;9.40;99.90;;;;;;5012491;28;20206;-76
2023/04/28 02:08:26;;;;;;;8.70;7.37;;;9.30;99.90;;;;;;5015574;28;20191;-76
2023/04/28 02:10:52;;;;;;;8.10;7.23;;;9.30;99.90;;;;;;5014703;28;20201;-75
2023/04/28 02:13:19;;;;;;;10.23;7.77;;;9.40;99.90;;;;;;5012920;28;20199;-75
2023/04/28 02:15:48;;;;;;;9.13;7.23;;;9.30;99.90;;;;;;5015277;28;20215;-75
2023/04/28 02:18:15;;;;;;;9.33;6.77;;;9.30;99.90;;;;;;5015177;28;20199;-76
2023/04/28 02:20:42;;;;;;;7.87;7.07;;;9.30;99.90;;;;;;5012657;28;20235;-74
2023/04/28 02:23:08;;;;;;;8.97;7.40;;;9.30;99.90;;;;;;5014757;28;20234;-75
2023/04/28 02:25:36;;;;;;;9.77;7.63;;;9.30;99.90;;;;;;5015299;28;20195;-76
2023/04/28 02:28:03;;;;;;;10.77;7.90;;;9.30;99.90;;;;;;5013107;28;20295;-76
2023/04/28 02:30:29;;;;;;;10.20;7.50;;;9.30;99.90;;;;;;5015233;28;20631;-76
2023/04/28 02:32:58;;;;;;;9.13;7.20;;;9.30;99.90;;;;;;5014705;28;20281;-76
2023/04/28 02:35:25;;;;;;;9.57;7.13;;;9.30;99.90;;;;;;5012391;28;20201;-75
2023/04/28 02:37:52;;;;;;;9.37;7.30;;;9.30;99.90;;;;;;5014534;28;20306;-77
2023/04/28 02:40:19;;;;;;;9.60;7.80;;;9.30;99.90;;;;;;5014182;28;20195;-77
2023/04/28 02:42:46;;;;;;;11.23;7.33;;;9.20;99.90;;;;;;5014381;28;20211;-76
2023/04/28 02:45:13;;;;;;;17.73;8.67;;;9.20;99.90;;;;;;5012789;28;20203;-76
2023/04/28 02:47:40;;;;;;;12.40;7.50;;;9.20;99.90;;;;;;5012652;28;20294;-77
2023/04/28 02:50:09;;;;;;;10.50;7.33;;;9.20;99.90;;;;;;5014664;28;20219;-76
2023/04/28 02:52:37;;;;;;;9.63;7.37;;;9.20;99.90;;;;;;5014828;28;20206;-77
2023/04/28 02:55:04;;;;;;;9.67;7.43;;;9.20;99.90;;;;;;5000723;28;20219;-77
2023/04/28 02:57:31;;;;;;;8.60;7.07;;;9.20;99.90;;;;;;4994939;28;20226;-77
2023/04/28 02:59:58;;;;;;;9.10;7.83;;;9.10;99.90;;;;;;5000629;28;20191;-77
2023/04/28 03:02:24;;;;;;;8.20;7.23;;;9.10;99.90;;;;;;5013280;28;20219;-77
2023/04/28 03:04:51;;;;;;;8.90;7.20;;;9.10;99.90;;;;;;5014759;28;20210;-77
2023/04/28 03:07:20;;;;;;;12.23;8.17;;;9.10;99.90;;;;;;5012547;28;20585;-76
2023/04/28 03:09:47;;;;;;;12.23;7.80;;;9.10;99.90;;;;;;5013252;28;20205;-76
2023/04/28 03:12:14;;;;;;;9.63;7.67;;;9.10;99.90;;;;;;5013656;28;20522;-76
2023/04/28 03:14:41;;;;;;;11.20;8.20;;;9.00;99.90;;;;;;5012714;28;20227;-75
2023/04/28 03:17:08;;;;;;;11.20;8.17;;;9.00;99.90;;;;;;5013373;28;20223;-75
2023/04/28 03:19:35;;;;;;;8.53;7.50;;;9.00;99.90;;;;;;5011733;28;20284;-77
2023/04/28 03:22:02;;;;;;;12.10;8.93;;;8.90;99.90;;;;;;4994548;28;20192;-76
2023/04/28 03:24:30;;;;;;;11.30;7.83;;;8.90;99.90;;;;;;5006114;28;20213;-76
2023/04/28 03:26:57;;;;;;;9.73;8.33;;;8.90;99.90;;;;;;5014220;28;20203;-77
2023/04/28 03:29:24;;;;;;;10.03;8.20;;;8.90;99.90;;;;;;4986360;28;20517;-76
2023/04/28 03:31:51;;;;;;;10.33;8.03;;;8.90;99.90;;;;;;4974570;28;20232;-77
2023/04/28 03:34:18;;;;;;;14.63;8.90;;;8.90;99.90;;;;;;4975339;28;20303;-76
2023/04/28 03:36:45;;;;;;;11.57;8.03;;;8.90;99.90;;;;;;4990025;28;20234;-76
2023/04/28 03:39:12;;;;;;;10.83;9.00;;;8.90;99.90;;;;;;4993809;28;20333;-75
2023/04/28 03:41:40;;;;;;;11.40;8.57;;;8.90;99.90;;;;;;4994443;28;20287;-75
2023/04/28 03:44:07;;;;;;;12.63;9.03;;;8.90;99.90;;;;;;4993016;28;20310;-76
2023/04/28 03:46:34;;;;;;;12.30;8.60;;;8.90;99.90;;;;;;4974737;28;20204;-76
2023/04/28 03:49:02;;;;;;;12.80;8.20;;;8.90;99.90;;;;;;4974137;28;20227;-76
2023/04/28 03:51:29;;;;;;;9.43;8.53;;;8.90;99.90;;;;;;4977143;28;20216;-76
2023/04/28 03:53:56;;;;;;;9.87;7.70;;;8.80;99.90;;;;;;5013347;28;20621;-76
2023/04/28 03:56:22;;;;;;;12.03;8.80;;;8.90;99.90;;;;;;5013338;28;20238;-76
2023/04/28 03:58:51;;;;;;;11.80;8.20;;;8.80;99.90;;;;;;5011068;28;20210;-76
2023/04/28 04:01:18;;;;;;;10.87;8.50;;;8.90;99.90;;;;;;5013562;28;20225;-75
2023/04/28 04:03:44;;;;;;;9.97;8.20;;;8.80;99.90;;;;;;5011607;28;20558;-75
2023/04/28 04:06:11;;;;;;;13.43;8.43;;;8.90;99.90;;;;;;5012915;28;20203;-76
2023/04/28 04:08:39;;;;;;;10.20;8.77;;;8.90;99.90;;;;;;5011593;28;20221;-75
2023/04/28 04:11:05;;;;;;;9.67;7.87;;;8.90;99.90;;;;;;5013151;28;20196;-77
2023/04/28 04:13:32;;;;;;;12.73;9.23;;;8.90;99.90;;;;;;5010518;28;20211;-76
2023/04/28 04:16:01;;;;;;;10.20;9.10;;;8.90;99.90;;;;;;5013183;28;20286;-76
2023/04/28 04:18:28;;;;;;;9.47;7.67;;;8.90;99.90;;;;;;5013264;28;20203;-75
2023/04/28 04:20:56;;;;;;;11.33;8.07;;;8.90;99.90;;;;;;5012450;28;20200;-76
2023/04/28 04:23:23;;;;;;;11.43;8.73;;;8.90;99.90;;;;;;5011412;28;20512;-76
2023/04/28 04:25:50;;;;;;;14.70;9.27;;;8.90;99.90;;;;;;5012912;28;20630;-76
2023/04/28 04:28:17;;;;;;;12.27;8.70;;;8.90;99.90;;;;;;5012373;28;20207;-78
2023/04/28 04:30:44;;;;;;;9.80;8.70;;;8.90;99.90;;;;;;5011338;28;20199;-75
2023/04/28 04:33:12;;;;;;;13.07;9.63;;;8.90;99.90;;;;;;5012121;28;20269;-76
2023/04/28 04:35:39;;;;;;;10.47;8.90;;;8.90;99.90;;;;;;5012802;28;20619;-76
2023/04/28 04:38:06;;;;;;;12.63;8.60;;;8.90;99.90;;;;;;5010674;28;20234;-76
2023/04/28 04:40:33;;;;;;;10.10;8.10;;;8.90;99.90;;;;;;5012014;28;20782;-76
2023/04/28 04:43:00;;;;;;;11.20;8.33;;;8.90;99.90;;;;;;5012952;28;20204;-76
2023/04/28 04:45:27;;;;;;;10.90;7.87;;;8.90;99.90;;;;;;5004298;28;20287;-76
2023/04/28 04:47:54;;;;;;;11.73;8.60;;;8.90;99.90;;;;;;4973438;28;20193;-76
2023/04/28 04:50:22;;;;;;;10.67;8.63;;;8.90;99.90;;;;;;4973502;28;20195;-76
2023/04/28 04:52:49;;;;;;;11.23;8.23;;;8.90;99.90;;;;;;4993627;28;20290;-77
2023/04/28 04:55:16;;;;;;;14.03;8.60;;;8.90;99.90;;;;;;5012396;28;20201;-76
2023/04/28 04:57:43;;;;;;;9.60;8.07;;;8.90;99.90;;;;;;5012455;28;20222;-76
2023/04/28 05:00:11;;;;;;;12.47;9.23;;;8.90;99.90;;;;;;5010454;28;20294;-77
2023/04/28 05:02:38;;;;;;;12.73;8.47;;;9.00;99.90;;;;;;5011981;28;20302;-78
2023/04/28 05:05:05;;;;;;;10.77;8.27;;;9.00;99.90;;;;;;5009485;28;20211;-76
2023/04/28 05:07:34;;;;;;;11.43;8.37;;;9.00;99.90;;;;;;5012189;28;20195;-75
2023/04/28 05:10:01;;;;;;;12.53;8.73;;;9.00;99.90;;;;;;5009275;28;20217;-76
2023/04/28 05:12:28;;;;;;;11.17;8.50;;;9.00;99.90;;;;;;5012134;28;20210;-75
2023/04/28 05:14:55;;;;;;;11.53;8.40;;;9.00;99.90;;;;;;5012564;28;20191;-77
2023/04/28 05:17:22;;;;;;;12.00;8.43;;;8.90;99.90;;;;;;5009800;28;20219;-78
2023/04/28 05:19:49;;;;;;;10.40;8.53;;;8.90;99.90;;;;;;5012206;28;20191;-77
2023/04/28 05:22:16;;;;;;;11.40;8.10;;;8.90;99.90;;;;;;5012004;28;20225;-76
2023/04/28 05:24:44;;;;;;;11.53;8.63;;;8.80;99.90;;;;;;5011720;28;20199;-76
2023/04/28 05:27:11;;;;;;;9.70;8.13;;;8.80;99.90;;;;;;5010336;28;20249;-77
2023/04/28 05:29:37;;;;;;;9.70;8.33;;;8.80;99.90;;;;;;5011784;28;20204;-79
2023/04/28 05:32:05;;;;;;;11.27;8.50;;;8.80;99.90;;;;;;5012818;28;20208;-80
2023/04/28 05:34:31;;;;;;;11.67;8.07;;;8.80;99.90;;;;;;5013041;28;20302;-79
2023/04/28 05:36:58;;;;;;;10.53;8.53;;;8.80;99.90;;;;;;4973337;28;20228;-79
2023/04/28 05:39:25;;;;;;;11.10;8.90;;;8.80;99.90;;;;;;4973966;28;20641;-80
2023/04/28 05:41:54;;;;;;;10.77;9.03;;;8.80;99.90;;;;;;4991311;28;20204;-80
2023/04/28 05:44:21;;;;;;;12.30;9.17;;;8.80;99.90;;;;;;4992513;28;20206;-78
2023/04/28 05:46:47;;;;;;;13.37;9.53;;;8.80;99.90;;;;;;5005575;28;20298;-80
2023/04/28 05:49:14;;;;;;;14.23;9.77;;;8.90;99.90;;;;;;5013020;28;20203;-79
2023/04/28 05:51:41;;;;;;;11.37;8.53;;;8.90;99.90;;;;;;4998725;28;20283;-79
2023/04/28 05:54:08;;;;;;;12.23;9.70;;;8.90;99.90;;;;;;4992907;28;20204;-81
2023/04/28 05:56:35;;;;;;;10.90;9.00;;;8.90;99.90;;;;;;5001018;28;20204;-77
2023/04/28 05:59:03;;;;;;;9.90;8.43;;;9.00;99.90;;;;;;4991096;28;20207;-78
2023/04/28 06:01:31;;;;;;;12.90;9.07;;;9.00;99.90;;;;;;4992357;28;20207;-79
2023/04/28 06:03:57;;;;;;;10.07;8.63;;;9.00;99.90;;;;;;4992211;28;20524;-80
2023/04/28 06:06:26;;;;;;;13.00;9.53;;;9.00;99.90;;;;;;4992018;28;20294;-79
2023/04/28 06:08:53;;;;;;;11.87;9.90;;;9.10;99.90;;;;;;4994182;28;20233;-76
2023/04/28 06:11:21;;;;;;;10.23;8.70;;;9.10;99.90;;;;;;5011797;28;20195;-75
2023/04/28 06:13:48;;;;;;;16.97;10.50;;;9.10;99.90;;;;;;5012129;28;20288;-79
2023/04/28 06:16:17;;;;;;;12.17;9.40;;;9.20;99.90;;;;;;4978103;28;20327;-79
2023/04/28 06:18:44;;;;;;;11.40;9.50;;;9.20;99.90;;;;;;4981317;28;20239;-79
2023/04/28 06:21:11;;;;;;;10.97;9.17;;;9.20;99.90;;;;;;5015677;28;20207;-80
2023/04/28 06:23:39;;;;;;;12.03;9.00;;;9.10;99.90;;;;;;5015478;28;20302;-79
2023/04/28 06:26:06;;;;;;;11.00;9.33;;;9.20;99.90;;;;;;5013284;28;20663;-77
2023/04/28 06:28:33;;;;;;;12.87;9.00;;;9.10;99.90;;;;;;5015185;28;20230;-79
2023/04/28 06:31:00;;;;;;;11.37;9.27;;;9.20;99.90;;;;;;5015477;28;20214;-79
2023/04/28 06:33:28;;;;;;;11.93;8.43;;;9.20;99.90;;;;;;5013380;28;20208;-80
2023/04/28 06:35:55;;;;;;;11.63;9.00;;;9.30;99.90;;;;;;5015304;28;20639;-79
2023/04/28 06:38:22;;;;;;;14.33;9.60;;;9.30;99.90;;;;;;5000047;28;20437;-79
2023/04/28 06:40:49;;;;;;;10.30;8.47;;;9.30;99.90;;;;;;4994798;28;20288;-79
2023/04/28 06:43:16;;;;;;;12.07;8.97;;;9.40;99.90;;;;;;4995628;28;20196;-80
2023/04/28 06:45:43;;;;;;;11.80;9.07;;;9.50;99.90;;;;;;4995973;28;20210;-80
2023/04/28 06:48:10;;;;;;;11.97;8.63;;;9.50;99.90;;;;;;4994890;28;20480;-79
2023/04/28 06:50:38;;;;;;;12.13;9.27;;;9.50;99.90;;;;;;5014914;28;20226;-78
2023/04/28 06:53:06;;;;;;;11.83;8.47;;;9.60;99.90;;;;;;5015081;28;20199;-79
2023/04/28 06:55:33;;;;;;;9.93;8.87;;;9.70;99.90;;;;;;5014462;28;20591;-81
2023/04/28 06:58:00;;;;;;;11.97;9.07;;;9.70;99.90;;;;;;4981667;28;20728;-78
2023/04/28 07:00:27;;;;;;;11.47;8.40;;;9.70;99.90;;;;;;4975555;28;20201;-80
2023/04/28 07:02:54;;;;;;;11.40;9.17;;;9.70;99.90;;;;;;4975904;28;20822;-80
2023/04/28 07:05:21;;;;;;;10.87;8.30;;;9.70;99.90;;;;;;5013855;28;20258;-80
2023/04/28 07:07:49;;;;;;;10.33;8.30;;;9.80;99.90;;;;;;5013893;28;20194;-78
2023/04/28 07:10:16;;;;;;;11.83;8.93;;;9.80;99.90;;;;;;5013594;28;20207;-80
2023/04/28 07:12:43;;;;;;;11.10;8.80;;;9.80;99.90;;;;;;5013012;28;20207;-79
2023/04/28 07:15:11;;;;;;;13.70;8.37;;;9.90;99.90;;;;;;5014200;28;20204;-76
2023/04/28 07:17:38;;;;;;;11.97;9.03;;;9.90;99.90;;;;;;5014470;28;20241;-79
2023/04/28 07:20:06;;;;;;;13.80;8.77;;;9.90;99.90;;;;;;5012921;28;20195;-78
2023/04/28 07:22:33;;;;;;;14.43;9.77;;;9.90;99.90;;;;;;5013722;28;20214;-77
2023/04/28 07:25:01;;;;;;;11.40;9.00;;;9.90;99.90;;;;;;5014694;28;20282;-80
2023/04/28 07:27:28;;;;;;;12.80;8.57;;;10.00;99.90;;;;;;5013010;28;20222;-75
2023/04/28 07:29:55;;;;;;;12.03;8.90;;;10.00;99.90;;;;;;5006747;28;20510;-79
2023/04/28 07:32:22;;;;;;;11.53;8.93;;;10.00;99.90;;;;;;4994274;28;20291;-78
2023/04/28 07:34:49;;;;;;;12.37;9.30;;;10.00;99.90;;;;;;4994493;28;20192;-79
2023/04/28 07:37:16;;;;;;;12.43;9.47;;;10.10;99.90;;;;;;5008329;28;20312;-79
2023/04/28 07:39:43;;;;;;;10.47;9.23;;;10.10;99.90;;;;;;5013697;28;20318;-77
2023/04/28 07:42:11;;;;;;;15.50;9.77;;;10.10;99.90;;;;;;5012463;28;20286;-78
2023/04/28 07:44:38;;;;;;;14.13;9.37;;;10.10;99.90;;;;;;5013564;28;20199;-77
2023/04/28 07:47:05;;;;;;;13.90;9.10;;;10.10;99.90;;;;;;5011653;28;20199;-78
2023/04/28 07:49:32;;;;;;;11.83;9.23;;;10.10;99.90;;;;;;4993900;28;20196;-77
2023/04/28 07:51:59;;;;;;;12.63;9.10;;;10.10;99.90;;;;;;4992876;28;20198;-78
2023/04/28 07:54:26;;;;;;;12.57;9.57;;;10.20;99.90;;;;;;4994325;28;20303;-78
2023/04/28 07:56:53;;;;;;;11.87;9.10;;;10.20;99.90;;;;;;4993538;28;20206;-77
2023/04/28 07:59:21;;;;;;;10.50;9.37;;;10.20;99.90;;;;;;4993554;28;20307;-78
2023/04/28 08:01:48;;;;;;;11.83;9.27;;;10.30;99.90;;;;;;4993387;28;20490;-75
2023/04/28 08:04:15;;;;;;;11.97;9.37;;;10.40;99.90;;;;;;5004585;28;20214;-75
2023/04/28 08:06:41;;;;;;;12.67;9.70;;;10.40;99.90;;;;;;5013025;28;20664;-76
2023/04/28 08:09:08;;;;;;;12.80;10.50;;;10.40;99.90;;;;;;5013145;28;20192;-77
2023/04/28 08:11:35;;;;;;;15.07;10.07;;;10.50;99.90;;;;;;5012402;28;20205;-76
2023/04/28 08:14:02;;;;;;;15.47;11.10;;;10.50;99.90;;;;;;4999971;28;20212;-76
2023/04/28 08:16:31;;;;;;;14.87;10.47;;;10.50;99.90;;;;;;4993102;28;20283;-77
2023/04/28 08:18:59;;;;;;;14.97;11.40;;;10.50;99.90;;;;;;4988335;28;20338;-76
2023/04/28 08:21:26;;;;;;;12.90;10.37;;;10.50;99.90;;;;;;4992524;28;20208;-75
2023/04/28 08:23:52;;;;;;;14.63;11.93;;;10.60;99.90;;;;;;4991056;28;20203;-77
2023/04/28 08:26:19;;;;;;;14.57;11.53;;;10.60;99.90;;;;;;4992769;28;20200;-80
2023/04/28 08:28:46;;;;;;;18.00;12.43;;;10.60;99.90;;;;;;4992737;28;20223;-76
2023/04/28 08:31:13;;;;;;;16.73;12.27;;;10.60;99.90;;;;;;4995672;28;20231;-77
2023/04/28 08:33:43;;;;;;;13.93;12.47;;;10.60;99.90;;;;;;4993227;28;20208;-76
2023/04/28 08:36:13;;;;;;;13.43;10.90;;;10.60;99.90;;;;;;4991722;28;20254;-75
2023/04/28 08:38:40;;;;;;;16.10;12.73;;;10.60;99.90;;;;;;4993471;28;20254;-76
2023/04/28 08:41:07;;;;;;;14.87;12.57;;;10.60;99.90;;;;;;4990971;28;20212;-76
2023/04/28 08:43:35;;;;;;;16.17;13.10;;;10.70;99.90;;;;;;4998391;28;20199;-76
2023/04/28 08:46:11;;;;;;;18.70;14.87;;;10.70;99.90;;;;;;4991186;28;20208;-76
2023/04/28 08:48:43;;;;;;;15.93;13.57;;;10.70;99.90;;;;;;5001351;28;20184;-76
2023/04/28 08:51:15;;;;;;;18.97;14.07;;;10.70;99.90;;;;;;5004434;28;20290;-76
2023/04/28 08:53:47;;;;;;;15.70;13.50;;;10.70;99.90;;;;;;5003691;28;20198;-78
2023/04/28 08:56:15;;;;;;;19.90;15.03;;;10.80;99.90;;;;;;5000369;28;20234;-77
2023/04/28 08:58:43;;;;;;;18.90;14.53;;;10.80;99.90;;;;;;5002691;28;20219;-77
2023/04/28 09:01:10;;;;;;;17.30;13.90;;;10.80;99.90;;;;;;4991665;28;20204;-75
2023/04/28 09:03:36;;;;;;;17.80;14.53;;;10.80;99.90;;;;;;5001652;28;20314;-77
2023/04/28 09:06:05;;;;;;;20.00;15.30;;;10.80;99.90;;;;;;5006495;28;20196;-76
2023/04/28 09:08:32;;;;;;;18.30;15.00;;;10.80;99.90;;;;;;4999983;28;20215;-76
2023/04/28 09:11:08;;;;;;;18.10;14.93;;;10.80;99.90;;;;;;4995170;28;20209;-76
2023/04/28 09:13:35;;;;;;;17.03;14.07;;;10.80;99.90;;;;;;4989300;28;20608;-76
2023/04/28 09:16:03;;;;;;;21.83;16.00;;;10.80;99.90;;;;;;5009313;28;20207;-77
2023/04/28 09:18:32;;;;;;;21.53;15.60;;;10.80;99.90;;;;;;5012238;28;20249;-78
2023/04/28 09:21:08;;;;;;;20.17;15.93;;;10.90;99.90;;;;;;5010229;28;20213;-78
2023/04/28 09:23:35;;;;;;;19.53;15.30;;;10.90;99.90;;;;;;5011335;28;20576;-77
2023/04/28 09:26:04;;;;;;;22.97;16.50;;;11.00;99.90;;;;;;5005443;28;20243;-76
2023/04/28 09:28:31;;;;;;;21.60;17.47;;;11.10;99.90;;;;;;4989856;28;20210;-75
2023/04/28 09:30:58;;;;;;;22.77;16.50;;;11.20;99.90;;;;;;4988741;28;20254;-76
2023/04/28 09:33:25;;;;;;;20.73;16.80;;;11.30;99.90;;;;;;4991323;28;20242;-79
2023/04/28 09:35:53;;;;;;;24.27;18.03;;;11.30;99.90;;;;;;4993316;28;20218;-77
2023/04/28 09:38:22;;;;;;;21.53;17.20;;;11.40;99.90;;;;;;4996152;28;20246;-75
2023/04/28 09:40:54;;;;;;;22.23;18.23;;;11.50;99.90;;;;;;4970046;28;20602;-77
2023/04/28 09:43:28;;;;;;;20.57;17.30;;;11.60;99.90;;;;;;4971729;28;20256;-77
2023/04/28 09:45:58;;;;;;;23.67;17.03;;;11.70;99.90;;;;;;4965941;28;20251;-77
2023/04/28 09:48:30;;;;;;;21.87;17.87;;;11.80;99.90;;;;;;4972957;28;20196;-75
2023/04/28 09:50:58;;;;;;;20.70;17.30;;;11.80;99.90;;;;;;4985530;28;20222;-77
2023/04/28 09:53:27;;;;;;;24.73;18.27;;;11.90;99.90;;;;;;4979885;28;20205;-77
2023/04/28 09:55:55;;;;;;;24.83;18.30;;;11.90;99.90;;;;;;4976683;28;20236;-76
2023/04/28 09:58:23;;;;;;;25.77;19.47;;;11.90;99.90;;;;;;4990905;28;20227;-78
2023/04/28 10:00:53;;;;;;;26.83;19.87;;;11.90;99.90;;;;;;4978788;28;20205;-77
2023/04/28 10:03:23;;;;;;;23.40;18.90;;;11.90;99.90;;;;;;4971545;28;20236;-77
2023/04/28 10:05:51;;;;;;;24.10;21.43;;;12.00;99.90;;;;;;4971130;28;20204;-78
2023/04/28 10:08:19;;;;;;;21.10;18.63;;;12.00;99.90;;;;;;4974949;28;20199;-77
2023/04/28 10:10:48;;;;;;;25.93;20.27;;;12.10;99.90;;;;;;4974194;28;20201;-75
2023/04/28 10:13:16;;;;;;;24.47;20.20;;;12.10;99.90;;;;;;4977746;28;20216;-76
2023/04/28 10:15:44;;;;;;;22.20;19.80;;;12.10;99.90;;;;;;4971531;28;20201;-77
2023/04/28 10:18:12;;;;;;;24.47;20.57;;;12.10;99.90;;;;;;4980209;28;20215;-76
2023/04/28 10:20:40;;;;;;;23.07;20.13;;;12.20;99.90;;;;;;4977865;28;20204;-76
2023/04/28 10:23:25;;;;;;;21.57;19.37;;;12.20;99.90;;;;;;4975274;28;20287;-76
2023/04/28 10:25:58;;;;;;;22.77;20.33;;;12.30;99.90;;;;;;4972033;28;20626;-76
2023/04/28 10:28:26;;;;;;;20.90;18.83;;;12.30;99.90;;;;;;4976853;28;20267;-75
2023/04/28 10:31:10;;;;;;;24.37;21.80;;;12.30;99.90;;;;;;4972780;28;20200;-77
2023/04/28 10:33:38;;;;;;;22.20;19.77;;;12.40;99.90;;;;;;4987272;23;20243;-76
2023/04/28 10:36:06;;;;;;;24.03;21.23;;;12.50;99.90;;;;;;4995978;28;20208;-78
2023/04/28 10:38:33;;;;;;;19.27;17.33;;;12.50;99.90;;;;;;4995479;28;20211;-76
2023/04/28 10:41:02;;;;;;;19.07;17.10;;;12.50;99.90;;;;;;4994526;28;20208;-77
2023/04/28 10:43:38;;;;;;;19.27;17.27;;;12.60;99.90;;;;;;4993964;28;20226;-77
2023/04/28 10:46:10;;;;;;;17.23;15.53;;;12.60;99.90;;;;;;4994552;28;20226;-77
2023/04/28 10:48:56;;;;;;;18.90;17.00;;;12.60;99.90;;;;;;4995546;28;20251;-77
2023/04/28 10:51:30;;;;;;;17.63;15.90;;;12.70;99.90;;;;;;4994277;28;20204;-77
2023/04/28 10:54:17;;;;;;;18.77;16.87;;;12.80;99.90;;;;;;4993040;28;20211;-77
2023/04/28 10:57:19;;;;;;;16.98;15.27;;;12.90;99.90;;;;;;4994233;28;20482;-77
2023/04/28 10:59:47;;;;;;;17.57;15.70;;;13.00;99.90;;;;;;4994767;28;20262;-77
2023/04/28 11:02:40;;;;;;;18.47;16.47;;;13.00;99.90;;;;;;5001641;28;20313;-77
2023/04/28 11:05:14;;;;;;;21.87;18.90;;;13.20;99.90;;;;;;4965157;28;20302;-79
2023/04/28 11:07:41;;;;;;;20.87;18.20;;;13.20;99.90;;;;;;5012448;28;20206;-77
2023/04/28 11:10:08;;;;;;;20.17;17.33;;;13.20;99.90;;;;;;5014238;28;20214;-77
2023/04/28 11:12:36;;;;;;;19.87;17.10;;;13.30;99.90;;;;;;5012841;28;20207;-78
2023/04/28 11:15:13;;;;;;;18.63;16.63;;;13.40;99.90;;;;;;5014214;28;20196;-78
2023/04/28 11:17:41;;;;;;;19.43;16.63;;;13.40;99.90;;;;;;5013075;28;20199;-77
2023/04/28 11:20:13;;;;;;;22.37;16.40;;;13.40;99.90;;;;;;5013751;28;20262;-78
2023/04/28 11:22:41;;;;;;;18.05;15.65;;;13.40;99.90;;;;;;5013404;28;20192;-78
2023/04/28 11:25:09;;;;;;;17.08;15.10;;;13.50;99.90;;;;;;4996550;28;20208;-78
2023/04/28 11:27:37;;;;;;;14.40;11.00;;;13.50;99.90;;;;;;5013799;28;20203;-77
2023/04/28 11:30:19;;;;;;;11.60;8.73;;;13.50;99.90;;;;;;5012403;28;20504;-78
2023/04/28 11:32:50;;;;;;;8.77;5.77;;;13.50;99.90;;;;;;5028880;28;20195;-78
2023/04/28 11:35:17;;;;;;;7.67;5.17;;;13.50;99.90;;;;;;5032645;28;20877;-78
2023/04/28 11:37:44;;;;;;;10.07;5.33;;;13.50;99.90;;;;;;5024360;28;20199;-78
2023/04/28 11:40:11;;;;;;;9.53;5.27;;;13.50;99.90;;;;;;5013126;28;20321;-79
2023/04/28 11:42:48;;;;;;;11.07;5.23;;;13.40;99.90;;;;;;5003587;28;20215;-79
2023/04/28 11:45:15;;;;;;;9.47;5.00;;;13.40;99.90;;;;;;4993984;28;20195;-78
2023/04/28 11:47:42;;;;;;;11.80;6.10;;;13.50;99.90;;;;;;4998968;28;20285;-78
2023/04/28 11:50:09;;;;;;;8.77;4.80;;;13.50;99.90;;;;;;5011699;28;20622;-79
2023/04/28 11:52:38;;;;;;;11.23;5.10;;;13.40;99.90;;;;;;5007320;28;20231;-78
2023/04/28 11:55:06;;;;;;;10.53;5.37;;;13.40;99.90;;;;;;5010155;28;20295;-79
2023/04/28 11:57:34;;;;;;;10.87;4.97;;;13.50;99.90;;;;;;5012213;28;20203;-78
2023/04/28 12:00:18;;;;;;;10.70;5.33;;;13.40;99.90;;;;;;5012096;28;20226;-79
2023/04/28 12:02:45;;;;;;;10.23;5.50;;;13.50;99.90;;;;;;5010018;28;20230;-78
2023/04/28 12:05:12;;;;;;;13.70;5.83;;;13.50;99.90;;;;;;5010854;28;20201;-80
2023/04/28 12:07:43;;;;;;;12.70;5.93;;;13.50;99.90;;;;;;5012468;28;20210;-79
2023/04/28 12:10:17;;;;;;;10.83;5.80;;;13.60;99.90;;;;;;5010682;28;20199;-80
2023/04/28 12:12:46;;;;;;;12.87;6.70;;;13.60;99.90;;;;;;5011105;28;20203;-79
2023/04/28 12:15:15;;;;;;;17.43;8.47;;;13.70;99.90;;;;;;5012620;28;20769;-79
2023/04/28 12:17:42;;;;;;;17.20;9.23;;;13.80;99.90;;;;;;5011099;28;20310;-79
2023/04/28 12:20:11;;;;;;;23.97;10.47;;;13.80;99.90;;;;;;5011502;28;20326;-79
2023/04/28 12:22:48;;;;;;;23.07;10.63;;;13.80;99.90;;;;;;5011989;28;20654;-79
2023/04/28 12:25:16;;;;;;;20.23;10.53;;;13.70;99.90;;;;;;5009872;28;20310;-79
2023/04/28 12:27:59;;;;;;;20.10;9.00;;;13.70;99.90;;;;;;5012739;28;20313;-79
2023/04/28 12:30:28;;;;;;;15.97;8.80;;;13.80;99.90;;;;;;5006567;28;20199;-79
2023/04/28 12:32:56;;;;;;;15.30;9.00;;;13.70;99.90;;;;;;4983983;28;20608;-79
2023/04/28 12:35:24;;;;;;;19.57;8.97;;;13.70;99.90;;;;;;5010814;28;20241;-81
2023/04/28 12:37:51;;;;;;;21.47;9.47;;;13.80;99.90;;;;;;5012355;28;20199;-79
2023/04/28 12:40:18;;;;;;;23.40;10.60;;;13.70;99.90;;;;;;5011539;28;20215;-80
2023/04/28 12:42:45;;;;;;;21.58;9.73;;;13.70;99.90;;;;;;5010393;28;20588;-78
2023/04/28 12:45:13;;;;;;;23.87;10.60;;;13.70;99.90;;;;;;5012269;28;20203;-78